createdAt,value
2022-09-15T00:01:41.150Z,101567.56
2022-09-15T00:04:10.081Z,101563.28
2022-09-15T00:06:38.286Z,101557.22
2022-09-15T00:09:06.682Z,101539.53
2022-09-15T00:11:37.542Z,101562.63
2022-09-15T00:14:08.091Z,101556.81
2022-09-15T00:16:36.855Z,101565.41
2022-09-15T00:19:07.558Z,101568.00
2022-09-15T00:21:38.233Z,101568.84
2022-09-15T00:24:07.184Z,101558.41
2022-09-15T00:26:35.146Z,101566.88
2022-09-15T00:29:03.594Z,101561.59
2022-09-15T00:31:36.114Z,101564.41
2022-09-15T00:34:05.796Z,101553.97
2022-09-15T00:36:34.469Z,101552.19
2022-09-15T00:39:03.714Z,101567.72
2022-09-15T00:41:32.010Z,101573.06
2022-09-15T00:44:17.041Z,101573.22
2022-09-15T00:46:58.917Z,101541.81
2022-09-15T00:49:40.309Z,101577.16
2022-09-15T00:52:11.165Z,101584.06
2022-09-15T00:54:42.561Z,101581.31
2022-09-15T00:57:20.909Z,101586.53
2022-09-15T00:59:50.238Z,101589.13
2022-09-15T01:02:27.730Z,101590.91
2022-09-15T01:04:59.061Z,101592.66
2022-09-15T01:07:35.249Z,101584.91
2022-09-15T01:10:12.936Z,101577.25
2022-09-15T01:12:42.264Z,101588.97
2022-09-15T01:15:10.315Z,101599.34
2022-09-15T01:17:52.763Z,101596.88
2022-09-15T01:20:48.335Z,101588.53
2022-09-15T01:23:41.167Z,101602.41
2022-09-15T01:26:25.358Z,101606.47
2022-09-15T01:29:35.322Z,101600.25
2022-09-15T01:32:47.973Z,101606.31
2022-09-15T01:35:29.609Z,101599.25
2022-09-15T01:38:05.874Z,101593.13
2022-09-15T01:40:40.380Z,101592.03
2022-09-15T01:43:10.894Z,101599.63
2022-09-15T01:45:43.109Z,101602.00
2022-09-15T01:48:13.037Z,101587.34
2022-09-15T01:50:48.055Z,101604.16
2022-09-15T01:53:21.891Z,101611.00
2022-09-15T01:56:01.692Z,101603.94
2022-09-15T01:58:31.136Z,101602.16
2022-09-15T02:01:06.950Z,101605.47
2022-09-15T02:03:52.555Z,101595.09
2022-09-15T02:06:55.231Z,101602.84
2022-09-15T02:09:32.207Z,101607.16
2022-09-15T02:12:20.210Z,101607.75
2022-09-15T02:15:04.125Z,101611.72
2022-09-15T02:17:39.500Z,101612.31
2022-09-15T02:20:27.092Z,101611.25
2022-09-15T02:23:01.460Z,101596.25
2022-09-15T02:25:34.570Z,101603.84
2022-09-15T02:28:08.647Z,101590.94
2022-09-15T02:30:43.775Z,101607.81
2022-09-15T02:33:20.526Z,101607.44
2022-09-15T02:35:48.610Z,101600.19
2022-09-15T02:38:16.707Z,101613.09
2022-09-15T02:40:45.843Z,101614.63
2022-09-15T02:43:16.531Z,101617.81
2022-09-15T02:45:45.271Z,101619.34
2022-09-15T02:48:14.685Z,101611.66
2022-09-15T02:50:42.900Z,101612.75
2022-09-15T02:53:10.913Z,101620.34
2022-09-15T02:55:40.775Z,101611.50
2022-09-15T02:58:08.496Z,101605.84
2022-09-15T03:00:39.393Z,101606.47
2022-09-15T03:03:07.529Z,101614.88
2022-09-15T03:05:35.464Z,101609.22
2022-09-15T03:08:03.582Z,101616.63
2022-09-15T03:10:34.324Z,101620.84
2022-09-15T03:13:02.305Z,101624.13
2022-09-15T03:15:30.409Z,101617.63
2022-09-15T03:17:59.409Z,101629.53
2022-09-15T03:20:31.089Z,101590.13
2022-09-15T03:22:59.302Z,101635.69
2022-09-15T03:25:27.895Z,101632.63
2022-09-15T03:27:55.930Z,101621.59
2022-09-15T03:30:23.926Z,101622.75
2022-09-15T03:32:52.195Z,101635.03
2022-09-15T03:35:20.174Z,101638.00
2022-09-15T03:37:48.108Z,101630.63
2022-09-15T03:40:17.064Z,101642.13
2022-09-15T03:42:45.119Z,101637.47
2022-09-15T03:45:13.115Z,101644.28
2022-09-15T03:47:41.230Z,101646.44
2022-09-15T03:50:09.561Z,101639.69
2022-09-15T03:52:37.660Z,101641.88
2022-09-15T03:55:06.130Z,101636.25
2022-09-15T03:57:34.064Z,101623.16
2022-09-15T04:00:02.053Z,101640.75
2022-09-15T04:02:33.796Z,101646.53
2022-09-15T04:05:01.793Z,101635.41
2022-09-15T04:07:32.027Z,101644.66
2022-09-15T04:10:01.814Z,101639.31
2022-09-15T04:12:33.313Z,101642.66
2022-09-15T04:15:01.670Z,101637.50
2022-09-15T04:17:32.033Z,101641.75
2022-09-15T04:20:00.034Z,101635.50
2022-09-15T04:22:32.690Z,101638.38
2022-09-15T04:25:01.854Z,101630.84
2022-09-15T04:27:35.067Z,101641.81
2022-09-15T04:30:03.167Z,101631.31
2022-09-15T04:32:32.398Z,101642.25
2022-09-15T04:35:00.330Z,101638.28
2022-09-15T04:37:47.615Z,101632.09
2022-09-15T04:40:15.782Z,101632.13
2022-09-15T04:42:43.859Z,101629.69
2022-09-15T04:45:12.413Z,101637.47
2022-09-15T04:47:40.377Z,101627.03
2022-09-15T04:50:08.581Z,101628.94
2022-09-15T04:52:39.969Z,101630.59
2022-09-15T04:55:08.253Z,101629.09
2022-09-15T04:57:36.280Z,101600.16
2022-09-15T05:00:10.878Z,101624.28
2022-09-15T05:02:38.860Z,101617.75
2022-09-15T05:05:07.182Z,101612.56
2022-09-15T05:07:37.901Z,101616.31
2022-09-15T05:10:06.363Z,101617.44
2022-09-15T05:12:34.349Z,101621.09
2022-09-15T05:15:02.390Z,101622.09
2022-09-15T05:17:33.121Z,101616.53
2022-09-15T05:20:01.977Z,101625.31
2022-09-15T05:22:37.210Z,101617.53
2022-09-15T05:25:07.860Z,101597.16
2022-09-15T05:27:35.875Z,101614.31
2022-09-15T05:30:34.996Z,101606.09
2022-09-15T05:32:52.170Z,101603.69
2022-09-15T05:35:22.164Z,101614.47
2022-09-15T05:37:49.996Z,101614.72
2022-09-15T05:40:18.365Z,101603.56
2022-09-15T05:42:48.987Z,101604.03
2022-09-15T05:45:17.280Z,101599.97
2022-09-15T05:47:45.311Z,101596.00
2022-09-15T05:50:14.400Z,101594.56
2022-09-15T05:52:42.543Z,101592.50
2022-09-15T05:55:10.698Z,101594.53
2022-09-15T05:57:39.836Z,101587.34
2022-09-15T06:00:08.461Z,101588.19
2022-09-15T06:02:36.422Z,101560.88
2022-09-15T06:05:04.642Z,101580.28
2022-09-15T06:07:32.657Z,101581.72
2022-09-15T06:10:00.812Z,101566.38
2022-09-15T06:12:32.045Z,101566.25
2022-09-15T06:15:00.480Z,101571.88
2022-09-15T06:17:29.618Z,101568.53
2022-09-15T06:20:17.864Z,101563.13
2022-09-15T06:22:47.040Z,101556.78
2022-09-15T06:25:15.489Z,101547.22
2022-09-15T06:27:43.652Z,101562.44
2022-09-15T06:30:12.277Z,101560.66
2022-09-15T06:32:40.185Z,101558.97
2022-09-15T06:35:09.463Z,101556.09
2022-09-15T06:37:37.449Z,101543.00
2022-09-15T06:40:05.795Z,101531.38
2022-09-15T06:42:33.978Z,101535.41
2022-09-15T06:45:02.018Z,101531.09
2022-09-15T06:47:34.430Z,101533.34
2022-09-15T06:50:02.620Z,101522.09
2022-09-15T06:52:31.834Z,101534.72
2022-09-15T06:54:59.836Z,101512.03
2022-09-15T06:57:28.142Z,101509.84
2022-09-15T06:59:56.019Z,101521.34
2022-09-15T07:02:24.123Z,101523.84
2022-09-15T07:04:52.364Z,101525.19
2022-09-15T07:07:20.981Z,101518.63
2022-09-15T07:10:08.369Z,101516.72
2022-09-15T07:12:36.314Z,101520.81
2022-09-15T07:15:04.513Z,101531.63
2022-09-15T07:17:32.762Z,101538.59
2022-09-15T07:20:01.741Z,101532.38
2022-09-15T07:22:32.233Z,101538.94
2022-09-15T07:25:01.494Z,101550.09
2022-09-15T07:27:32.500Z,101555.59
2022-09-15T07:30:00.598Z,101548.50
2022-09-15T07:32:28.760Z,101551.97
2022-09-15T07:34:58.501Z,101551.19
2022-09-15T07:37:26.487Z,101551.13
2022-09-15T07:39:56.980Z,101549.19
2022-09-15T07:42:26.597Z,101555.16
2022-09-15T07:44:54.556Z,101547.63
2022-09-15T07:47:22.673Z,101558.06
2022-09-15T07:49:50.964Z,101556.81
2022-09-15T07:52:18.892Z,101550.59
2022-09-15T07:54:47.903Z,101546.41
2022-09-15T07:57:15.887Z,101548.31
2022-09-15T07:59:43.833Z,101551.91
2022-09-15T08:02:20.968Z,101546.69
2022-09-15T08:04:49.105Z,101544.69
2022-09-15T08:07:17.161Z,101541.94
2022-09-15T08:09:45.533Z,101546.25
2022-09-15T08:12:13.529Z,101546.25
2022-09-15T08:14:41.552Z,101528.41
2022-09-15T08:17:11.630Z,101533.78
2022-09-15T08:19:39.935Z,101533.66
2022-09-15T08:22:08.043Z,101538.81
2022-09-15T08:24:39.025Z,101527.56
2022-09-15T08:27:07.424Z,101520.50
2022-09-15T08:29:35.420Z,101518.38
2022-09-15T08:32:04.823Z,101520.88
2022-09-15T08:34:32.860Z,101524.75
2022-09-15T08:37:00.848Z,101534.09
2022-09-15T08:39:31.253Z,101536.38
2022-09-15T08:42:02.839Z,101531.22
2022-09-15T08:44:45.811Z,101511.38
2022-09-15T08:47:37.609Z,101528.56
2022-09-15T08:50:36.250Z,101526.44
2022-09-15T08:53:13.636Z,101529.56
2022-09-15T08:55:54.906Z,101526.69
2022-09-15T08:58:29.444Z,101529.94
2022-09-15T09:01:05.889Z,101539.50
2022-09-15T09:03:49.198Z,101534.13
2022-09-15T09:06:29.601Z,101526.94
2022-09-15T09:09:10.751Z,101523.59
2022-09-15T09:11:54.496Z,101538.81
2022-09-15T09:14:52.485Z,101535.97
2022-09-15T09:17:37.187Z,101537.41
2022-09-15T09:20:22.774Z,101536.59
2022-09-15T09:22:55.188Z,101530.34
2022-09-15T09:25:28.120Z,101548.69
2022-09-15T09:28:03.018Z,101497.50
2022-09-15T09:30:34.034Z,101537.78
2022-09-15T09:33:38.678Z,101532.41
2022-09-15T09:36:09.637Z,101530.38
2022-09-15T09:38:43.846Z,101532.81
2022-09-15T09:41:28.712Z,101549.22
2022-09-15T09:43:57.164Z,101526.34
2022-09-15T09:46:25.249Z,101540.84
2022-09-15T09:49:24.533Z,101550.31
2022-09-15T09:52:00.533Z,101543.13
2022-09-15T09:54:35.902Z,101529.81
2022-09-15T09:57:30.358Z,101540.25
2022-09-15T09:59:58.842Z,101544.56
2022-09-15T10:02:28.145Z,101536.28
2022-09-15T10:05:09.116Z,101549.72
2022-09-15T10:07:44.639Z,101545.16
2022-09-15T10:10:26.018Z,101539.91
2022-09-15T10:12:57.664Z,101561.59
2022-09-15T10:15:34.087Z,101545.06
2022-09-15T10:18:22.698Z,101551.03
2022-09-15T10:20:53.443Z,101551.03
2022-09-15T10:23:24.624Z,101547.44
2022-09-15T10:26:00.673Z,101550.09
2022-09-15T10:28:29.568Z,101539.78
2022-09-15T10:31:14.957Z,101548.66
2022-09-15T10:33:48.295Z,101543.38
2022-09-15T10:36:24.490Z,101553.19
2022-09-15T10:38:55.439Z,101544.56
2022-09-15T10:41:37.094Z,101555.47
2022-09-15T10:44:33.764Z,101553.19
2022-09-15T10:47:37.698Z,101555.22
2022-09-15T10:50:17.923Z,101550.28
2022-09-15T10:52:57.859Z,101553.47
2022-09-15T10:55:52.748Z,101549.16
2022-09-15T10:58:52.116Z,101549.63
2022-09-15T11:01:32.654Z,101550.94
2022-09-15T11:04:28.924Z,101546.94
2022-09-15T11:07:23.951Z,101553.50
2022-09-15T11:10:03.962Z,101542.47
2022-09-15T11:12:46.653Z,101550.00
2022-09-15T11:15:29.419Z,101553.09
2022-09-15T11:18:20.851Z,101550.88
2022-09-15T11:21:34.880Z,101555.66
2022-09-15T11:24:27.717Z,101554.19
2022-09-15T11:27:15.653Z,101553.59
2022-09-15T11:30:01.823Z,101555.47
2022-09-15T11:32:44.865Z,101556.44
2022-09-15T11:35:43.114Z,101553.19
2022-09-15T11:38:16.243Z,101552.47
2022-09-15T11:41:02.702Z,101558.06
2022-09-15T11:43:40.347Z,101527.09
2022-09-15T11:46:14.477Z,101558.13
2022-09-15T11:48:53.308Z,101556.66
2022-09-15T11:51:25.502Z,101562.03
2022-09-15T11:54:04.562Z,101562.34
2022-09-15T11:56:44.763Z,101555.22
2022-09-15T11:59:37.471Z,101564.44
2022-09-15T12:02:44.699Z,101567.50
2022-09-15T12:05:17.437Z,101571.81
2022-09-15T12:07:56.549Z,101582.66
2022-09-15T12:10:35.396Z,101562.41
2022-09-15T12:13:04.320Z,101561.78
2022-09-15T12:15:33.137Z,101573.13
2022-09-15T12:18:41.002Z,101570.94
2022-09-15T12:21:17.416Z,101574.00
2022-09-15T12:24:12.757Z,101567.38
2022-09-15T12:26:43.860Z,101568.09
2022-09-15T12:30:02.912Z,101580.28
2022-09-15T12:32:49.643Z,101563.06
2022-09-15T12:35:22.233Z,101576.09
2022-09-15T12:37:59.071Z,101574.16
2022-09-15T12:40:40.089Z,101587.94
2022-09-15T12:43:14.260Z,101591.69
2022-09-15T12:45:45.303Z,101593.69
2022-09-15T12:48:23.439Z,101590.44
2022-09-15T12:50:59.495Z,101591.69
2022-09-15T12:53:40.847Z,101588.34
2022-09-15T12:56:25.323Z,101597.34
2022-09-15T12:58:57.125Z,101591.47
2022-09-15T13:01:25.178Z,101598.78
2022-09-15T13:03:58.516Z,101591.09
2022-09-15T13:06:27.715Z,101593.09
2022-09-15T13:09:06.222Z,101593.31
2022-09-15T13:11:55.608Z,101591.81
2022-09-15T13:14:42.615Z,101590.66
2022-09-15T13:17:26.899Z,101601.03
2022-09-15T13:20:00.667Z,101595.34
2022-09-15T13:22:38.248Z,101597.25
2022-09-15T13:25:14.324Z,101594.81
2022-09-15T13:27:56.138Z,101603.84
2022-09-15T13:30:41.617Z,101598.78
2022-09-15T13:38:03.773Z,101594.03
2022-09-15T13:40:01.630Z,101583.81
2022-09-15T13:43:03.992Z,101589.34
2022-09-15T13:45:32.119Z,101593.84
2022-09-15T13:48:00.141Z,101592.28
2022-09-15T13:50:34.446Z,101601.38
2022-09-15T13:53:27.974Z,101607.66
2022-09-15T13:55:56.595Z,101599.88
2022-09-15T14:01:16.834Z,101607.19
2022-09-15T14:03:50.637Z,101609.19
2022-09-15T14:06:34.283Z,101609.47
2022-09-15T14:09:08.522Z,101606.38
2022-09-15T14:11:40.513Z,101589.81
2022-09-15T14:14:22.383Z,101605.94
2022-09-15T14:16:51.770Z,101595.63
2022-09-15T14:19:35.353Z,101615.75
2022-09-15T14:22:35.099Z,101607.22
2022-09-15T14:25:12.409Z,101612.47
2022-09-15T14:27:56.839Z,101607.59
2022-09-15T14:30:31.785Z,101607.03
2022-09-15T14:33:04.257Z,101617.53
2022-09-15T14:35:37.671Z,101612.56
2022-09-15T14:38:06.098Z,101607.88
2022-09-15T14:40:40.120Z,101606.41
2022-09-15T14:43:28.039Z,101616.88
2022-09-15T14:46:05.157Z,101618.00
2022-09-15T14:48:36.801Z,101611.44
2022-09-15T14:54:28.958Z,101599.28
2022-09-15T14:57:04.768Z,101620.63
2022-09-15T14:59:57.894Z,101610.25
2022-09-15T15:02:58.101Z,101613.31
2022-09-15T15:05:34.845Z,101627.34
2022-09-15T15:08:07.170Z,101602.91
2022-09-15T15:10:38.764Z,101626.03
2022-09-15T15:13:16.186Z,101622.09
2022-09-15T15:15:45.672Z,101633.75
2022-09-15T15:18:32.405Z,101621.13
2022-09-15T15:21:00.649Z,101620.91
2022-09-15T15:23:28.853Z,101629.91
2022-09-15T15:26:40.704Z,101626.63
2022-09-15T15:29:30.004Z,101630.34
2022-09-15T15:32:14.078Z,101631.91
2022-09-15T15:34:50.462Z,101625.31
2022-09-15T15:37:34.913Z,101630.47
2022-09-15T15:40:08.087Z,101628.28
2022-09-15T15:45:25.808Z,101630.06
2022-09-15T15:47:53.875Z,101632.84
2022-09-15T15:50:25.128Z,101639.34
2022-09-15T15:52:54.036Z,101632.69
2022-09-15T15:55:25.208Z,101627.84
2022-09-15T15:57:56.747Z,101632.25
2022-09-15T16:00:31.362Z,101627.59
2022-09-15T16:02:59.337Z,101640.59
2022-09-15T16:05:29.864Z,101625.25
2022-09-15T16:08:03.425Z,101626.34
2022-09-15T16:10:39.700Z,101626.59
2022-09-15T16:13:08.292Z,101636.34
2022-09-15T16:15:36.314Z,101635.75
2022-09-15T16:18:06.689Z,101612.88
2022-09-15T16:20:34.916Z,101633.78
2022-09-15T16:23:03.639Z,101623.56
2022-09-15T16:25:42.239Z,101625.50
2022-09-15T16:28:10.287Z,101629.19
2022-09-15T16:30:38.371Z,101613.34
2022-09-15T16:33:08.035Z,101629.84
2022-09-15T16:36:08.935Z,101625.09
2022-09-15T16:38:40.031Z,101622.81
2022-09-15T16:41:19.758Z,101609.75
2022-09-15T16:43:48.250Z,101618.28
2022-09-15T16:46:17.954Z,101630.72
2022-09-15T16:48:59.183Z,101585.34
2022-09-15T16:51:31.432Z,101636.63
2022-09-15T16:54:00.169Z,101622.59
2022-09-15T16:56:30.463Z,101631.44
2022-09-15T16:59:00.583Z,101619.00
2022-09-15T17:01:29.190Z,101634.50
2022-09-15T17:03:57.309Z,101634.84
2022-09-15T17:06:25.988Z,101630.63
2022-09-15T17:08:54.269Z,101623.47
2022-09-15T17:11:25.967Z,101642.28
2022-09-15T17:13:54.334Z,101643.34
2022-09-15T17:16:22.642Z,101643.78
2022-09-15T17:18:51.671Z,101630.28
2022-09-15T17:21:20.326Z,101629.66
2022-09-15T17:23:50.444Z,101592.81
2022-09-15T17:26:21.599Z,101636.84
2022-09-15T17:28:50.017Z,101619.00
2022-09-15T17:31:24.253Z,101621.50
2022-09-15T17:33:53.133Z,101624.34
2022-09-15T17:36:21.337Z,101578.97
2022-09-15T17:38:49.432Z,101628.38
2022-09-15T17:41:20.209Z,101619.06
2022-09-15T17:43:48.377Z,101624.50
2022-09-15T17:46:16.648Z,101620.41
2022-09-15T17:48:44.940Z,101608.88
2022-09-15T17:51:20.050Z,101609.31
2022-09-15T17:53:49.896Z,101623.88
2022-09-15T17:56:17.643Z,101631.91
2022-09-15T17:58:45.632Z,101628.53
2022-09-15T18:01:15.806Z,101626.06
2022-09-15T18:03:45.575Z,101626.97
2022-09-15T18:06:13.930Z,101612.59
2022-09-15T18:08:42.216Z,101624.78
2022-09-15T18:11:15.046Z,101625.69
2022-09-15T18:13:43.755Z,101624.78
2022-09-15T18:16:15.016Z,101621.47
2022-09-15T18:18:43.623Z,101625.03
2022-09-15T18:21:27.075Z,101616.47
2022-09-15T18:23:56.821Z,101611.72
2022-09-15T18:26:26.606Z,101618.75
2022-09-15T18:28:55.458Z,101610.66
2022-09-15T18:31:23.525Z,101606.75
2022-09-15T18:33:51.561Z,101616.25
2022-09-15T18:36:21.268Z,101608.78
2022-09-15T18:38:49.228Z,101615.06
2022-09-15T18:41:17.238Z,101610.97
2022-09-15T18:43:49.574Z,101618.06
2022-09-15T18:46:18.660Z,101606.22
2022-09-15T18:48:47.245Z,101598.34
2022-09-15T18:51:23.975Z,101608.38
2022-09-15T18:53:58.059Z,101604.09
2022-09-15T18:56:26.266Z,101568.69
2022-09-15T18:59:34.496Z,101602.72
2022-09-15T19:02:02.691Z,101608.03
2022-09-15T19:04:33.342Z,101606.53
2022-09-15T19:07:03.073Z,101607.59
2022-09-15T19:09:31.584Z,101612.91
2022-09-15T19:11:59.560Z,101605.56
2022-09-15T19:14:32.070Z,101596.06
2022-09-15T19:17:00.396Z,101619.28
2022-09-15T19:19:28.423Z,101558.34
2022-09-15T19:21:59.028Z,101612.09
2022-09-15T19:24:32.857Z,101596.75
2022-09-15T19:27:06.569Z,101610.53
2022-09-15T19:30:35.344Z,101609.06
2022-09-15T19:33:03.778Z,101610.88
2022-09-15T19:35:31.794Z,101607.56
2022-09-15T19:38:00.935Z,101604.28
2022-09-15T19:40:29.063Z,101617.41
2022-09-15T19:42:57.238Z,101611.63
2022-09-15T19:45:27.073Z,101611.69
2022-09-15T19:47:55.077Z,101600.69
2022-09-15T19:50:23.120Z,101602.50
2022-09-15T19:52:54.234Z,101600.06
2022-09-15T19:55:24.705Z,101601.94
2022-09-15T19:57:52.690Z,101598.53
2022-09-15T20:00:20.828Z,101589.25
2022-09-15T20:02:49.239Z,101608.31
2022-09-15T20:05:17.286Z,101608.38
2022-09-15T20:07:47.645Z,101606.69
2022-09-15T20:10:17.121Z,101611.03
2022-09-15T20:12:45.131Z,101603.22
2022-09-15T20:15:14.112Z,101591.38
2022-09-15T20:17:43.106Z,101599.91
2022-09-15T20:20:12.480Z,101599.16
2022-09-15T20:22:42.333Z,101588.13
2022-09-15T20:25:10.307Z,101594.16
2022-09-15T20:27:39.025Z,101599.38
2022-09-15T20:30:07.716Z,101597.72
2022-09-15T20:32:35.922Z,101594.47
2022-09-15T20:35:03.900Z,101601.50
2022-09-15T20:37:37.279Z,101600.66
2022-09-15T20:40:08.949Z,101602.50
2022-09-15T20:42:37.535Z,101598.28
2022-09-15T20:45:06.101Z,101594.97
2022-09-15T20:47:34.541Z,101584.84
2022-09-15T20:50:02.491Z,101595.97
2022-09-15T20:52:37.396Z,101596.03
2022-09-15T20:55:06.707Z,101593.47
2022-09-15T20:57:34.815Z,101601.31
2022-09-15T21:00:06.976Z,101593.69
2022-09-15T21:02:34.741Z,101591.94
2022-09-15T21:05:02.699Z,101590.53
2022-09-15T21:07:33.058Z,101595.59
2022-09-15T21:10:00.984Z,101603.44
2022-09-15T21:12:29.069Z,101548.50
2022-09-15T21:14:58.535Z,101583.16
2022-09-15T21:17:26.514Z,101615.72
2022-09-15T21:19:54.451Z,101599.38
2022-09-15T21:22:23.713Z,101602.91
2022-09-15T21:24:51.852Z,101601.25
2022-09-15T21:27:29.878Z,101598.69
2022-09-15T21:29:58.089Z,101596.31
2022-09-15T21:32:26.123Z,101592.19
2022-09-15T21:34:59.168Z,101602.72
2022-09-15T21:37:28.656Z,101593.25
2022-09-15T21:39:57.532Z,101593.28
2022-09-15T21:42:27.571Z,101594.34
2022-09-15T21:44:56.306Z,101597.88
2022-09-15T21:47:24.550Z,101591.84
2022-09-15T21:49:54.121Z,101596.25
2022-09-15T21:52:22.257Z,101604.06
2022-09-15T21:54:50.239Z,101602.44
2022-09-15T21:57:18.619Z,101599.88
2022-09-15T21:59:46.602Z,101596.44
2022-09-15T22:02:14.544Z,101593.97
2022-09-15T22:04:42.696Z,101596.69
2022-09-15T22:07:10.775Z,101595.94
2022-09-15T22:09:39.572Z,101595.19
2022-09-15T22:12:09.088Z,101595.19
2022-09-15T22:14:37.052Z,101589.19
2022-09-15T22:17:05.057Z,101607.44
2022-09-15T22:19:35.776Z,101604.09
2022-09-15T22:22:03.822Z,101599.84
2022-09-15T22:24:31.820Z,101596.47
2022-09-15T22:27:00.808Z,101595.75
2022-09-15T22:29:28.790Z,101595.75
2022-09-15T22:31:56.821Z,101601.84
2022-09-15T22:34:25.958Z,101598.50
2022-09-15T22:36:53.945Z,101603.13
2022-09-15T22:39:27.024Z,101609.00
2022-09-15T22:42:08.011Z,101598.06
2022-09-15T22:44:36.062Z,101608.28
2022-09-15T22:47:06.873Z,101603.25
2022-09-15T22:49:34.985Z,101609.28
2022-09-15T22:52:03.201Z,101617.13
2022-09-15T22:57:18.046Z,101616.38
2022-09-15T22:59:45.767Z,101614.69
2022-09-15T23:02:13.721Z,101621.66
2022-09-15T23:04:41.900Z,101620.00
2022-09-15T23:07:10.055Z,101633.84
2022-09-15T23:09:38.041Z,101628.78
2022-09-15T23:12:12.353Z,101629.84
2022-09-15T23:14:40.329Z,101631.09
2022-09-15T23:17:08.257Z,101635.63
2022-09-15T23:19:36.420Z,101608.19
2022-09-15T23:22:04.358Z,101623.41
2022-09-15T23:24:33.661Z,101626.81
2022-09-15T23:27:02.744Z,101628.47
2022-09-15T23:29:31.752Z,101601.06
2022-09-15T23:31:59.775Z,101620.78
2022-09-15T23:34:30.005Z,101607.09
2022-09-15T23:36:57.980Z,101636.47
2022-09-15T23:39:25.953Z,101630.84
2022-09-15T23:41:54.916Z,101618.06
2022-09-15T23:44:22.904Z,101628.41
2022-09-15T23:46:50.997Z,101637.53
2022-09-15T23:49:37.345Z,101641.78
2022-09-15T23:52:05.275Z,101634.97
2022-09-15T23:54:33.248Z,101627.31
2022-09-15T23:57:02.141Z,101636.56
2022-09-15T23:59:30.116Z,101639.91
